Weather History for PAMY - May, 2013

Change the Weather History Date:

Friday, May 3, 2013

  Actual Average Record
Temperature  
Mean Temperature 19 °F -  
Max Temperature 26 °F 32 °F 42 °F (2004)
Min Temperature 12 °F 25 °F -11 °F (1984)
Degree Days  
Heating Degree Days 46    
Moisture  
Dew Point 15 °F    
Average Humidity 75    
Maximum Humidity 86    
Minimum Humidity 69    
Precipitation  
Precipitation 0.00 in - - ()
Sea Level Pressure  
Sea Level Pressure 30.20 in    
Wind  
Wind Speed 11 mph (NNW)    
Max Wind Speed 15 mph    
Max Gust Speed 16 mph    
Visibility 10 miles    
Events      
Averages and records for this station are not official NWS values.
T = Trace of Precipitation, MM = Missing Value Source: NWS Daily Summary

Daily Weather History Graph

Daily Weather History Graph

Search for Another Location

Airport or City:

Trip Planner

Search our weather history database for the weather conditions in past years. The results will help you decide how hot, cold, wet, or windy it might be!

Date:

Astronomy

May. 03, 2013 Rise Set
Actual Time 6:54 AM AKDT 11:11 PM AKDT
Civil Twilight 5:58 AM AKDT 12:08 AM AKDT
Nautical Twilight 4:25 AM AKDT 1:44 AM AKDT
Astronomical Twilight Sun does not rise Sun does not rise
Moon 5:03 AM AKDT (5/3) 3:48 PM AKDT (5/3)
Length of Visible Light 18h 09m
Length of Day
16h 17m
Waning Crescent, 35% of the Moon is Illuminated
May 3
Waning Crescent
May 9
New
May 17
First Quarter
May 24
Full
May 31
Last Quarter

Hourly Weather History & Observations

Time (AKDT) Temp. Windchill Dew Point Humidity Pressure Visibility Wind Dir Wind Speed Gust Speed Precip Events Conditions
12:16 AM 19.4 °F 6.6 °F 12.2 °F 74% 30.14 in 10.0 mi North 12.7 mph - N/A   Overcast
12:36 AM 17.6 °F 8.2 °F 12.2 °F 79% 30.14 in 10.0 mi NNW 6.9 mph - N/A   Overcast
12:56 AM 17.6 °F 7.3 °F 10.4 °F 73% 30.14 in 10.0 mi NNW 8.1 mph - N/A   Mostly Cloudy
1:16 AM 17.6 °F 5.0 °F 12.2 °F 79% 30.15 in 10.0 mi NNW 11.5 mph - N/A   Overcast
1:36 AM 17.6 °F 6.4 °F 12.2 °F 79% 30.15 in 10.0 mi NNW 9.2 mph - N/A   Overcast
1:56 AM 19.4 °F 7.9 °F 14.0 °F 80% 30.16 in 10.0 mi NNW 10.4 mph - N/A   Overcast
2:16 AM 19.4 °F 7.9 °F 14.0 °F 80% 30.16 in 10.0 mi NNW 10.4 mph - N/A   Overcast
2:36 AM 19.4 °F 10.4 °F 14.0 °F 80% 30.17 in 10.0 mi NW 6.9 mph - N/A   Overcast
2:56 AM 17.6 °F 7.3 °F 12.2 °F 79% 30.17 in 10.0 mi NNW 8.1 mph - N/A   Overcast
3:16 AM 15.8 °F 5.1 °F 10.4 °F 79% 30.17 in 10.0 mi NW 8.1 mph - N/A   Overcast
3:36 AM 15.8 °F 4.2 °F 10.4 °F 79% 30.17 in 10.0 mi NW 9.2 mph - N/A   Overcast
3:56 AM 14.0 °F 2.9 °F 8.6 °F 79% 30.18 in 10.0 mi NNW 8.1 mph - N/A   Overcast
4:16 AM 14.0 °F 2.0 °F 8.6 °F 79% 30.17 in 10.0 mi NW 9.2 mph - N/A   Scattered Clouds
4:36 AM 12.2 °F 2.9 °F 8.6 °F 85% 30.17 in 10.0 mi NW 5.8 mph - N/A   Mostly Cloudy
4:56 AM 12.2 °F 2.9 °F 8.6 °F 85% 30.17 in 10.0 mi NNW 5.8 mph - N/A   Overcast
5:16 AM 14.0 °F 2.9 °F 10.4 °F 86% 30.17 in 10.0 mi NNW 8.1 mph - N/A   Overcast
5:36 AM 17.6 °F 4.3 °F 12.2 °F 79% 30.17 in 10.0 mi North 12.7 mph - N/A   Overcast
5:56 AM 17.6 °F 5.0 °F 12.2 °F 79% 30.17 in 10.0 mi NNW 11.5 mph 16.1 mph N/A   Overcast
6:16 AM 17.6 °F 5.0 °F 12.2 °F 79% 30.18 in 10.0 mi NNW 11.5 mph - N/A   Overcast
6:36 AM 19.4 °F 8.6 °F 12.2 °F 74% 30.18 in 10.0 mi North 9.2 mph - N/A   Overcast
6:56 AM 19.4 °F 10.4 °F 12.2 °F 74% 30.18 in 10.0 mi North 6.9 mph - N/A   Overcast
7:16 AM 19.4 °F 6.0 °F 12.2 °F 74% 30.18 in 10.0 mi North 13.8 mph - N/A   Overcast
7:36 AM 19.4 °F 7.2 °F 12.2 °F 74% 30.18 in 10.0 mi NNW 11.5 mph - N/A   Overcast
7:56 AM 19.4 °F 7.2 °F 12.2 °F 74% 30.18 in 10.0 mi NNW 11.5 mph - N/A   Overcast
8:16 AM 19.4 °F 7.9 °F 12.2 °F 74% 30.18 in 10.0 mi NNW 10.4 mph - N/A   Overcast
8:36 AM 19.4 °F 6.6 °F 12.2 °F 74% 30.18 in 10.0 mi NNW 12.7 mph - N/A   Overcast
8:56 AM 17.6 °F 5.7 °F 12.2 °F 79% 30.18 in 10.0 mi NNW 10.4 mph - N/A   Mostly Cloudy
9:16 AM 17.6 °F 7.3 °F 12.2 °F 79% 30.19 in 10.0 mi North 8.1 mph - N/A   Partly Cloudy
9:36 AM 17.6 °F 8.2 °F 12.2 °F 79% 30.19 in 10.0 mi NNW 6.9 mph - N/A   Clear
9:56 AM 19.4 °F 9.5 °F 12.2 °F 74% 30.19 in 10.0 mi NNW 8.1 mph - N/A   Clear
10:16 AM 19.4 °F 11.5 °F 14.0 °F 80% 30.20 in 10.0 mi NNW 5.8 mph - N/A   Scattered Clouds
10:56 AM 21.2 °F 10.1 °F 15.8 °F 80% 30.20 in 10.0 mi North 10.4 mph - N/A   Clear
11:16 AM 23.0 °F 12.4 °F 15.8 °F 74% 30.21 in 10.0 mi North 10.4 mph - N/A   Clear
11:36 AM 24.8 °F 16.1 °F 15.8 °F 69% 30.21 in 10.0 mi North 8.1 mph - N/A   Clear
11:56 AM 24.8 °F 14.0 °F 17.6 °F 74% 30.21 in 10.0 mi North 11.5 mph - N/A   Partly Cloudy
12:16 PM 24.8 °F 14.0 °F 15.8 °F 69% 30.21 in 10.0 mi NNW 11.5 mph - N/A   Mostly Cloudy
12:36 PM 24.8 °F 12.4 °F 15.8 °F 69% 30.22 in 10.0 mi NNW 15.0 mph - N/A   Mostly Cloudy
12:56 PM 24.8 °F 13.4 °F 17.6 °F 74% 30.22 in 10.0 mi NW 12.7 mph - N/A   Overcast
1:16 PM 24.8 °F 14.0 °F 15.8 °F 69% 30.23 in 10.0 mi NNW 11.5 mph - N/A   Mostly Cloudy
1:36 PM 24.8 °F 13.4 °F 17.6 °F 74% 30.23 in 10.0 mi NNW 12.7 mph - N/A   Mostly Cloudy
1:56 PM 24.8 °F 12.9 °F 15.8 °F 69% 30.23 in 10.0 mi NNW 13.8 mph - N/A   Mostly Cloudy
2:16 PM 24.8 °F 12.9 °F 17.6 °F 74% 30.23 in 10.0 mi NNW 13.8 mph - N/A   Overcast
2:56 PM 24.8 °F 13.4 °F 17.6 °F 74% 30.23 in 10.0 mi NNW 12.7 mph - N/A   Mostly Cloudy
3:16 PM 24.8 °F 13.4 °F 17.6 °F 74% 30.23 in 10.0 mi NNW 12.7 mph - N/A   Overcast
3:36 PM 24.8 °F 13.4 °F 17.6 °F 74% 30.23 in 10.0 mi NNW 12.7 mph 16.1 mph N/A   Overcast
3:56 PM 26.6 °F 15.2 °F 17.6 °F 69% 30.24 in 10.0 mi NNW 13.8 mph - N/A   Overcast
4:16 PM 26.6 °F 14.7 °F 17.6 °F 69% 30.24 in 10.0 mi NNW 15.0 mph - N/A   Overcast
4:36 PM 26.6 °F 15.2 °F 19.4 °F 74% 30.24 in 10.0 mi NW 13.8 mph - N/A   Overcast
4:56 PM 26.6 °F 15.2 °F 19.4 °F 74% 30.23 in 10.0 mi NNW 13.8 mph - N/A   Overcast
5:16 PM 26.6 °F 16.2 °F 17.6 °F 69% 30.23 in 10.0 mi NNW 11.5 mph - N/A   Mostly Cloudy
5:36 PM 26.6 °F 15.7 °F 19.4 °F 74% 30.23 in 10.0 mi North 12.7 mph - N/A   Mostly Cloudy
5:56 PM 26.6 °F 15.2 °F 17.6 °F 69% 30.23 in 10.0 mi NNW 13.8 mph - N/A   Mostly Cloudy
6:16 PM 26.6 °F 14.7 °F 17.6 °F 69% 30.22 in 10.0 mi NNW 15.0 mph - N/A   Mostly Cloudy
6:36 PM 26.6 °F 14.7 °F 17.6 °F 69% 30.22 in 10.0 mi NNW 15.0 mph - N/A   Scattered Clouds
6:56 PM 24.8 °F 13.4 °F 17.6 °F 74% 30.22 in 10.0 mi NNW 12.7 mph - N/A   Partly Cloudy
7:16 PM 24.8 °F 12.9 °F 17.6 °F 74% 30.22 in 10.0 mi North 13.8 mph - N/A   Scattered Clouds
7:36 PM 24.8 °F 12.9 °F 17.6 °F 74% 30.22 in 10.0 mi NNW 13.8 mph - N/A   Mostly Cloudy
7:56 PM 24.8 °F 14.0 °F 17.6 °F 74% 30.23 in 10.0 mi North 11.5 mph - N/A   Overcast
8:16 PM 26.6 °F 15.2 °F 17.6 °F 69% 30.23 in 10.0 mi NNW 13.8 mph - N/A   Overcast
8:36 PM 24.8 °F 14.6 °F 17.6 °F 74% 30.23 in 10.0 mi North 10.4 mph - N/A   Overcast
8:56 PM 24.8 °F 13.4 °F 17.6 °F 74% 30.23 in 10.0 mi NNW 12.7 mph - N/A   Overcast
9:16 PM 24.8 °F 14.0 °F 17.6 °F 74% 30.23 in 10.0 mi North 11.5 mph - N/A   Overcast
9:36 PM 24.8 °F 12.9 °F 17.6 °F 74% 30.24 in 10.0 mi NNW 13.8 mph - N/A   Overcast
9:56 PM 24.8 °F 13.4 °F 17.6 °F 74% 30.24 in 10.0 mi NNW 12.7 mph - N/A   Overcast
10:16 PM 24.8 °F 13.4 °F 17.6 °F 74% 30.24 in 10.0 mi North 12.7 mph - N/A   Overcast
10:36 PM 24.8 °F 13.4 °F 17.6 °F 74% 30.25 in 10.0 mi NNW 12.7 mph - N/A   Overcast
10:56 PM 24.8 °F 13.4 °F 17.6 °F 74% 30.25 in 10.0 mi NNW 12.7 mph - N/A   Overcast
11:16 PM 24.8 °F 14.0 °F 17.6 °F 74% 30.25 in 10.0 mi North 11.5 mph - N/A   Overcast
11:36 PM 24.8 °F 13.4 °F 17.6 °F 74% 30.25 in 10.0 mi NNW 12.7 mph - N/A   Overcast
11:56 PM 24.8 °F 16.1 °F 17.6 °F 74% 30.25 in 10.0 mi North 8.1 mph - N/A   Overcast